UBBB/BAK METAR and TAF weather

Enter ICAO airport designator
Station Type Date Time Source
UBBB METAR 2022/06/25 23:30 UTC NOAA

UBBB 252330Z 34014KT CAVOK 22/19 Q1006 NOSIG


Station Type Date Time Source
UBBB Decoded METAR 2022/06/25 23:30 UTC NOAA

Baku / Bine Airport, Azerbaijan (UBBB) 40-27N 050-04E -1M
Jun 25, 2022 - 07:30 PM EDT / 2022.06.25 2330 UTC
Wind: from the NNW (340 degrees) at 16 MPH (14 KT):0
Visibility: greater than 7 mile(s):0
Temperature: 71 F (22 C)
Dew Point: 66 F (19 C)
Relative Humidity: 83%
Pressure (altimeter): 29.71 in. Hg (1006 hPa)
ob: UBBB 252330Z 34014KT CAVOK 22/19 Q1006 NOSIG
cycle: 23

Station Type Date Time Source
UBBB TAF 2022/06/25 18:12 UTC NOAA

TAF TAF UBBB 251709Z 2518/2618 33016KT CAVOK TX30/2610Z TN20/2602Z
TEMPO 2518/2524 33010KT SCT012
BECMG 2600/2602 33018G28KT FEW050CB
TEMPO 2604/2618 35022G32KT SCT015

Example: see airport list